• Join FlightAware (Why Join?)
  • Login
  • US Flag 
10:52AM EDT


 

Airport Tracker/Info


-or-


 

Live Flight TrackerFlight Track Log ✈ N957AN ✈ 28-Apr-2013 ✈ KDFW - KSFO

Flight Track Log - Related Links

Times and Time Zones

All times are in EDT time to prevent confusion due to time zone crossing. See the N957AN flight status page for this flight to view local times or setup timezone preferences in your user account.

Time Position Orientation Groundspeed Altitude Reporting Facility
EDT Latitude Longitude Course Direction KTS MPH feet Rate Location/Type
09:06PM 32.8833 -97.0500 294° West 162 186 1,300  Level Dallas / Fort Worth TRACON
09:07PM 32.8000 -97.0667 190° South 230 265 3,400 1,800 Climbing Dallas / Fort Worth TRACON
09:08PM 32.8042 -97.3176 298° West  Level FlightAware Approximate
09:08PM 32.7667 -97.1333 239° Southwest 258 297 5,700  Level Dallas / Fort Worth TRACON
09:09PM 32.8565 -97.4411 296° West  Level FlightAware Approximate
09:09PM 32.7667 -97.2167 270° West 277 319 7,800  Level Dallas / Fort Worth TRACON
09:10PM 32.9055 -97.5665 292° West  Level FlightAware Approximate
09:10PM 32.8103 -97.3319 294° West 454 522 10,600  Level Fort Worth Center
09:11PM 32.9518 -97.6935 294° West  Level FlightAware Approximate
09:11PM 32.8481 -97.4183 298° West 374 430 12,200  Level Fort Worth Center
09:12PM 32.8958 -97.5322 297° West 342 394 15,000 2,460 Climbing Fort Worth Center
09:13PM 32.9417 -97.6461 296° West 356 410 17,200 2,340 Climbing Fort Worth Center
09:14PM 32.9831 -97.7650 293° West 380 437 19,700 2,220 Climbing Fort Worth Center
09:15PM 33.0056 -97.8964 282° West 391 450 21,700 1,860 Climbing Fort Worth Center
09:16PM 33.0239 -98.0231 280° West 417 480 23,500 1,800 Climbing Fort Worth Center
09:17PM 33.0481 -98.1644 282° West 432 497 25,400 1,680 Climbing Fort Worth Center
09:18PM 33.0681 -98.3058 280° West 432 497 26,900 1,500 Climbing Fort Worth Center
09:19PM 33.0900 -98.4525 280° West 444 511 28,500 1,620 Climbing Fort Worth Center
09:20PM 33.1117 -98.5914 281° West 439 505 30,200 1,560 Climbing Fort Worth Center
09:21PM 33.1333 -98.7356 280° West 444 511 31,700 1,500 Climbing Fort Worth Center
09:22PM 33.1547 -98.8775 280° West 444 511 33,200 1,320 Climbing Fort Worth Center
09:23PM 33.1758 -99.0167 280° West 444 511 34,400 960 Climbing Fort Worth Center
09:24PM 33.2219 -99.1492 293° West 437 503 35,200 960 Climbing Fort Worth Center
09:25PM 33.2828 -99.2747 300° West 430 495 36,400 1,080 Climbing Fort Worth Center
09:26PM 33.3414 -99.4003 299° West 430 495 37,400 780 Climbing Fort Worth Center
09:27PM 33.3978 -99.5258 298° West 430 495 38,000 300 Climbing Fort Worth Center
09:28PM 33.4583 -99.6519 300° West 430 495 38,000  Level Fort Worth Center
09:29PM 33.5144 -99.7753 299° West 435 501 38,000  Level Fort Worth Center
09:30PM 33.5706 -99.9014 298° West 435 501 38,000  Level Fort Worth Center
09:31PM 33.6306 -100.0253 300° West 435 501 38,000  Level Fort Worth Center
09:32PM 33.6842 -100.1519 297° West 435 501 38,000  Level Fort Worth Center
09:33PM 33.7442 -100.2761 300° West 435 501 38,000  Level Fort Worth Center
09:34PM 33.8017 -100.4056 298° West 435 501 38,000  Level Fort Worth Center
09:35PM 33.8589 -100.5300 299° West 435 501 38,000  Level Fort Worth Center
09:36PM 33.9142 -100.6619 297° West 435 501 38,000  Level Fort Worth Center
09:37PM 33.9714 -100.7869 299° West 435 501 38,000  Level Fort Worth Center
09:38PM 34.0283 -100.9119 299° West 435 501 38,000  Level Fort Worth Center
09:39PM 34.0875 -101.0372 300° West 435 501 38,000  Level Fort Worth Center
09:40PM 34.1458 -101.1778 297° West 435 501 38,000  Level Fort Worth Center
09:43PM 34.2708 -101.4564 299° West 426 490 38,000  Level Albuquerque Center
09:44PM 34.3278 -101.5847 298° West 430 495 38,000  Level Albuquerque Center
09:45PM 34.3836 -101.7139 298° West 432 497 38,000  Level Albuquerque Center
09:46PM 34.4517 -101.8711 298° West 436 502 38,000  Level Albuquerque Center
09:47PM 34.5081 -102.0028 297° West 438 504 38,000  Level Albuquerque Center
09:48PM 34.5642 -102.1339 297° West 437 503 38,000  Level Albuquerque Center
09:49PM 34.6203 -102.2656 297° West 438 504 38,000  Level Albuquerque Center
09:50PM 34.6778 -102.3972 298° West 439 505 38,000  Level Albuquerque Center
09:51PM 34.7331 -102.5283 297° West 437 503 38,000  Level Albuquerque Center
09:52PM 34.7886 -102.6592 297° West 435 501 38,000  Level Albuquerque Center
09:53PM 34.8450 -102.7911 298° West 435 501 38,000  Level Albuquerque Center
09:54PM 34.9014 -102.9236 297° West 436 502 38,000  Level Albuquerque Center
09:55PM 34.9567 -103.0561 297° West 434 499 38,000  Level Albuquerque Center
09:56PM 35.0117 -103.1889 297° West 436 502 38,000  Level Albuquerque Center
09:57PM 35.0672 -103.3211 297° West 435 501 38,000  Level Albuquerque Center
09:58PM 35.1311 -103.4753 297° West 434 499 38,000  Level Albuquerque Center
09:59PM 35.1861 -103.6078 297° West 435 501 38,000  Level Albuquerque Center
10:00PM 35.2297 -103.7472 291° West 437 503 38,000  Level Albuquerque Center
10:01PM 35.2739 -103.8853 291° West 435 501 38,000  Level Albuquerque Center
10:02PM 35.3156 -104.0208 291° West 439 505 38,000  Level Albuquerque Center
10:03PM 35.3606 -104.1606 292° West 434 499 38,000  Level Albuquerque Center
10:04PM 35.4014 -104.2983 290° West 434 499 38,000  Level Albuquerque Center
10:05PM 35.4442 -104.4367 291° West 433 498 38,000  Level Albuquerque Center
10:06PM 35.4869 -104.5761 291° West 435 501 38,000  Level Albuquerque Center
10:07PM 35.5369 -104.7394 291° West 436 502 38,000  Level Albuquerque Center
10:08PM 35.5797 -104.8792 291° West 435 501 38,000  Level Albuquerque Center
10:09PM 35.6217 -105.0203 290° West 436 502 38,000  Level Albuquerque Center
10:10PM 35.6644 -105.1572 291° West 429 494 38,000  Level Albuquerque Center
10:11PM 35.7150 -105.2906 295° West 427 491 38,000  Level Albuquerque Center
10:12PM 35.7667 -105.4225 296° West 425 489 38,000  Level Albuquerque Center
10:13PM 35.8172 -105.5556 295° West 426 490 38,000  Level Albuquerque Center
10:14PM 35.8681 -105.6858 296° West 424 488 38,000  Level Albuquerque Center
10:15PM 35.9181 -105.8161 295° West 422 486 38,000  Level Albuquerque Center
10:16PM 35.9667 -105.9475 295° West 423 487 38,000  Level Albuquerque Center
10:18PM 36.0172 -106.0800 295° West 426 490 38,000  Level Albuquerque Center
10:19PM 36.0664 -106.2122 295° West 425 489 38,000  Level Albuquerque Center
10:20PM 36.1167 -106.3467 295° West 431 496 38,000  Level Albuquerque Center
10:21PM 36.1775 -106.5125 294° West 426 490 38,000  Level Albuquerque Center
10:22PM 36.2247 -106.6397 295° West 426 490 38,000  Level Albuquerque Center
10:23PM 36.2717 -106.7686 294° West 427 491 38,000  Level Albuquerque Center
10:24PM 36.3272 -106.9172 295° West 427 491 38,000  Level Albuquerque Center
10:25PM 36.3731 -107.0447 294° West 425 489 38,000  Level Albuquerque Center
10:25PM 36.4042 -107.1278 295° West 423 487 38,000  Level Denver Center
10:26PM 36.4572 -107.2758 294° West 421 484 38,000  Level Denver Center
10:27PM 36.5006 -107.4014 293° West 417 480 38,000  Level Denver Center
10:28PM 36.5539 -107.5506 294° West 422 486 38,000  Level Denver Center
10:29PM 36.6006 -107.6775 295° West 423 487 38,000  Level Denver Center
10:30PM 36.6525 -107.8256 294° West 420 483 38,000  Level Denver Center
10:32PM 36.6981 -107.9531 294° West 420 483 38,000  Level Denver Center
10:33PM 36.7422 -108.0828 293° West 425 489 38,000  Level Denver Center
10:34PM 36.7958 -108.2328 294° West 426 490 38,000  Level Denver Center
10:35PM 36.8422 -108.3622 294° West 427 491 38,000  Level Denver Center
10:36PM 36.8950 -108.5156 293° West 432 497 38,000  Level Denver Center
10:37PM 36.9486 -108.6664 294° West 428 493 38,000  Level Denver Center
10:38PM 37.0011 -108.8167 294° West 426 490 38,000  Level Denver Center
10:39PM 37.0617 -108.9897 294° West 425 489 38,000  Level Denver Center
10:40PM 37.1064 -109.1183 294° West 423 487 38,000  Level Denver Center
10:41PM 37.1492 -109.2492 292° West 424 488 38,000  Level Denver Center
10:42PM 37.2017 -109.3981 294° West 420 483 38,000  Level Denver Center
10:43PM 37.2450 -109.5267 293° West 420 483 38,000  Level Denver Center
10:44PM 37.2956 -109.6772 293° West 420 483 38,000  Level Denver Center
10:45PM 37.3403 -109.8039 294° West 417 480 38,000  Level Denver Center
10:46PM 37.3897 -109.9550 292° West 418 481 38,000  Level Denver Center
10:47PM 37.4328 -110.0828 293° West 416 479 38,000  Level Denver Center
10:48PM 37.4778 -110.2164 293° West 415 478 38,000  Level Denver Center
10:49PM 37.5250 -110.3597 293° West 413 475 38,000  Level Denver Center
10:50PM 37.5678 -110.4886 293° West 416 479 38,000  Level Denver Center
10:51PM 37.6108 -110.6208 292° West 420 483 38,000  Level Denver Center
10:52PM 37.6556 -110.7564 293° West 422 486 38,000  Level Denver Center
10:53PM 37.6858 -110.9256 283° West 413 475 38,000  Level Denver Center
10:54PM 37.7111 -111.0667 283° West 413 475 38,000  Level Denver Center
10:55PM 37.7297 -111.1794 282° West 413 475 38,000  Level Salt Lake Center
10:56PM 37.7592 -111.3483 282° West 412 474 38,000  Level Salt Lake Center
10:57PM 37.7858 -111.4917 283° West 417 480 38,000  Level Salt Lake Center
10:58PM 37.8103 -111.6344 282° West 417 480 38,000  Level Salt Lake Center
10:59PM 37.8336 -111.7786 282° West 418 481 38,000  Level Salt Lake Center
11:01PM 37.8586 -111.9225 282° West 421 484 38,000  Level Salt Lake Center
11:02PM 37.8839 -112.0681 282° West 424 488 38,000  Level Salt Lake Center
11:03PM 37.9094 -112.2136 283° West 426 490 38,000  Level Salt Lake Center
11:04PM 37.9331 -112.3583 282° West 424 488 38,000  Level Salt Lake Center
11:05PM 37.9564 -112.4986 282° West 414 476 38,000  Level Salt Lake Center
11:06PM 37.9833 -112.6650 282° West 407 468 38,000  Level Salt Lake Center
11:07PM 38.0061 -112.8039 282° West 406 467 38,000  Level Salt Lake Center
11:08PM 38.0286 -112.9439 282° West 408 470 38,000  Level Salt Lake Center
11:09PM 38.0506 -113.0844 281° West 410 472 38,000  Level Salt Lake Center
11:10PM 38.0722 -113.2242 281° West 409 471 38,000  Level Salt Lake Center
11:11PM 38.0944 -113.3642 281° West 408 470 38,000  Level Salt Lake Center
11:12PM 38.1164 -113.5042 281° West 406 467 38,000  Level Salt Lake Center
11:13PM 38.1286 -113.6483 276° West 411 473 38,000  Level Salt Lake Center
11:14PM 38.1239 -113.8244 268° West 418 481 38,000  Level Salt Lake Center
11:15PM 38.1225 -113.9736 269° West 424 488 38,000  Level Salt Lake Center
11:16PM 38.1189 -114.1239 268° West 426 490 38,000  Level Salt Lake Center
11:17PM 38.1164 -114.2722 269° West 422 486 38,000  Level Salt Lake Center
11:18PM 38.1147 -114.4206 269° West 422 486 38,000  Level Salt Lake Center
11:19PM 38.1106 -114.5700 268° West 425 489 38,000  Level Salt Lake Center
11:20PM 38.1086 -114.7183 269° West 423 487 38,000  Level Salt Lake Center
11:21PM 38.1047 -114.8678 268° West 424 488 38,000  Level Salt Lake Center
11:22PM 38.1017 -115.0158 269° West 423 487 38,000  Level Salt Lake Center
11:23PM 38.0983 -115.1639 268° West 421 484 38,000  Level Salt Lake Center
11:24PM 38.0936 -115.3222 268° West 421 484 38,000  Level Salt Lake Center
11:25PM 38.0897 -115.4725 268° West 424 488 38,000  Level Salt Lake Center
11:26PM 38.0842 -115.6214 267° West 425 489 38,000  Level Salt Lake Center
11:27PM 38.0803 -115.7711 268° West 424 488 38,000  Level Salt Lake Center
11:28PM 38.0761 -115.9214 268° West 427 491 38,000  Level Salt Lake Center
11:29PM 38.0711 -116.0708 268° West 425 489 38,000  Level Salt Lake Center
11:30PM 38.0661 -116.1925 267° West 427 491 38,000  Level Oakland Center
11:30PM 38.0644 -116.2525 268° West 430 495 38,000  Level Salt Lake Center
11:31PM 38.0597 -116.4056 268° West 432 497 38,000  Level Salt Lake Center
11:32PM 38.0536 -116.5589 267° West 435 501 38,000  Level Salt Lake Center
11:33PM 38.0475 -116.7150 267° West 441 507 38,000  Level Salt Lake Center
11:34PM 38.0417 -116.8694 267° West 438 504 38,000  Level Salt Lake Center
11:35PM 38.0383 -116.9628 267° West 438 504 38,000  Level Oakland Center
11:36PM 38.0314 -117.1183 267° West 435 501 38,000  Level Oakland Center
11:36PM 38.0292 -117.1819 267° West 437 503 38,000  Level Salt Lake Center
11:37PM 38.0247 -117.2778 267° West 438 504 38,000  Level Oakland Center
11:38PM 38.0183 -117.4347 267° West 440 506 38,000  Level Oakland Center
11:39PM 38.0117 -117.5892 267° West 437 503 38,000  Level Oakland Center
11:40PM 38.0042 -117.7417 266° West 434 499 38,000  Level Oakland Center
11:41PM 37.9900 -117.8958 263° West 441 507 38,000  Level Oakland Center
11:42PM 37.9697 -118.0806 262° West 441 507 38,000  Level Oakland Center
11:43PM 37.9533 -118.2336 262° West 440 506 38,000  Level Oakland Center
11:44PM 37.9369 -118.3856 262° West 436 502 38,000  Level Oakland Center
11:45PM 37.9214 -118.5361 263° West 434 499 38,000  Level Oakland Center
11:46PM 37.9044 -118.6897 262° West 437 503 38,000  Level Oakland Center
11:47PM 37.8889 -118.8417 263° West 435 501 38,000  Level Oakland Center
11:48PM 37.8697 -118.9950 261° West 440 506 38,000  Level Oakland Center
11:49PM 37.8525 -119.1458 262° West 443 510 38,000  Level Oakland Center
11:50PM 37.8353 -119.3006 262° West 443 510 38,000  Level Oakland Center
11:51PM 37.8164 -119.4531 261° West 441 507 38,000  Level Oakland Center
11:52PM 37.7978 -119.6075 261° West 444 511 38,000 -540 Level Oakland Center
11:53PM 37.7792 -119.7619 261° West 445 512 37,000 -1,680 Descending Oakland Center
11:54PM 37.7611 -119.9161 262° West 444 511 34,600 -1,680 Descending Oakland Center
11:55PM 37.7425 -120.0703 261° West 445 512 33,700 -960 Descending Oakland Center
11:56PM 37.7225 -120.2261 261° West 448 516 32,700 -1,740 Descending Oakland Center
11:57PM 37.7028 -120.3825 261° West 451 519 30,200 -2,940 Descending Oakland Center
11:58PM 37.6783 -120.5686 261° West 448 516 26,800 -2,940 Descending Oakland Center
11:59PM 37.6600 -120.7189 261° West 441 507 24,300 -2,460 Descending Oakland Center
12:00AM 37.6392 -120.8625 260° West 428 493 21,900 -2,400 Descending Oakland Center
12:01AM 37.6222 -120.9989 261° West 407 468 19,500 -2,040 Descending Oakland Center
12:02AM 37.6036 -121.1233 259° West 372 428 17,800 -1,860 Descending Oakland Center
12:03AM 37.5306 -121.1950 218° Southwest 348 400 15,800 -1,920 Descending Oakland Center
12:04AM 37.4822 -121.2869 236° Southwest 340 391 13,900 -1,740 Descending Oakland Center
12:05AM 37.5169 -121.3844 294° West 302 348 12,300 -1,020 Descending Oakland Center
12:06AM 37.5225 -121.4828 274° West 286 329 11,900 -660 Descending Oakland Center
12:07AM 37.5167 -121.5833 266° West 248 285 11,000 -900 Descending Northern Cal TRACON
12:08AM 37.5000 -121.6667 256° West 243 280 10,100 -1,080 Descending Northern Cal TRACON
12:09AM 37.5000 -121.7500 270° West 248 285 8,900 -1,080 Descending Northern Cal TRACON
12:10AM 37.4833 -121.8333 256° West 243 280 8,000 -480 Descending Northern Cal TRACON
12:11AM 37.4833 -121.9167 270° West 242 278 8,000 -480 Level Northern Cal TRACON
12:12AM 37.5000 -121.9833 288° West 237 273 7,100 -1,500 Descending Northern Cal TRACON
12:13AM 37.5167 -122.0667 284° West 237 273 5,000 -1,500 Descending Northern Cal TRACON
12:14AM 37.5500 -122.1333 302° West 197 227 4,000 -1,140 Descending Northern Cal TRACON
12:15AM 37.5667 -122.2000 288° West 178 205 2,800 -1,200 Descending Northern Cal TRACON
12:16AM 37.5667 -122.2500 270° West 150 173 1,800 -900 Descending Northern Cal TRACON
12:17AM 37.5833 -122.3000 293° West 144 166 1,100 -720 Descending Northern Cal TRACON
12:18AM 37.6000 -122.3500 293° West 144 166 300 -60 Descending Northern Cal TRACON
12:19AM 37.6167 -122.3833 302° West 154 177 1,000 1,080 Climbing Northern Cal TRACON
12:20AM 37.6500 -122.4333 310° West 197 227 2,400 960 Climbing Northern Cal TRACON
12:21AM 37.6833 -122.5167 297° West 226 260 3,000 720 Climbing Northern Cal TRACON
12:22AM 37.6833 -122.5833 270° West 232 267 4,000 900 Climbing Northern Cal TRACON
12:23AM 37.6333 -122.5833 180° South 234 269 4,800 480 Climbing Northern Cal TRACON
12:24AM 37.5833 -122.5333 142° Southeast 207 238 5,000 60 Climbing Northern Cal TRACON
12:25AM 37.5500 -122.4833 130° Southeast 196 226 5,000  Level Northern Cal TRACON
12:26AM 37.5450 -122.4700 115° Southeast 197 227 5,000  Level Oakland Center
12:27AM 37.5192 -122.4100 118° Southeast 194 223 5,000  Level Oakland Center
12:28AM 37.4939 -122.3489 118° Southeast 196 226 5,000  Level Oakland Center
12:29AM 37.4617 -122.2789 120° Southeast 194 223 5,000 -420 Level Oakland Center
12:30AM 37.4483 -122.2139 104° East 195 224 4,200 -540 Descending Oakland Center
12:31AM 37.4781 -122.1694 50° Northeast 179 206 4,000 -240 Descending Oakland Center
12:32AM 37.5239 -122.1769 353° North 182 209 3,800 -900 Descending Oakland Center
12:33AM 37.5556 -122.2261 309° West 183 211 2,300 -1,200 Descending Oakland Center
12:34AM 37.5756 -122.2742 298° West 169 194 1,400 -840 Descending Oakland Center
12:35AM 37.5925 -122.3172 296° West 153 176 700 -720 Descending Oakland Center